Time;durP1;ratioP1;P1;durP2;ratioP2;P2;SDS_P1;SDS_P2;PMS_P1;PMS_P2;Temp;Humidity;BMP_temperature;BMP_pressure;BME280_temperature;BME280_humidity;BME280_pressure;Samples;Min_cycle;Max_cycle;Signal;HPM_P1;HPM_P2
2023/08/20 00:01:33;;;;;;;7.18;4.03;;;;;;;;;;5013253;28;20538;-61
2023/08/20 00:04:00;;;;;;;7.65;4.30;;;;;;;;;;5011471;28;20113;-60
2023/08/20 00:06:27;;;;;;;8.98;4.35;;;;;;;;;;5012721;28;20125;-58
2023/08/20 00:08:54;;;;;;;7.97;4.38;;;;;;;;;;5011098;28;20092;-62
2023/08/20 00:11:20;;;;;;;7.97;4.38;;;;;;;;;;5014510;28;20025;-61
2023/08/20 00:13:47;;;;;;;8.75;4.78;;;;;;;;;;5013476;28;20045;-63
2023/08/20 00:16:14;;;;;;;8.10;4.07;;;;;;;;;;5012179;28;20042;-62
2023/08/20 00:18:41;;;;;;;9.05;4.57;;;;;;;;;;5010128;28;20168;-64
2023/08/20 00:21:08;;;;;;;7.00;4.38;;;;;;;;;;5029955;28;20046;-61
2023/08/20 00:23:38;;;;;;;7.80;4.60;;;;;;;;;;5010544;28;20161;-63
2023/08/20 00:26:05;;;;;;;8.35;4.38;;;;;;;;;;5011904;28;20042;-63
2023/08/20 00:30:49;;;;;;;6.53;3.83;;;;;;;;;;5122540;27;20436;-64
2023/08/20 00:33:16;;;;;;;9.93;4.32;;;;;;;;;;5060116;28;20032;-59
2023/08/20 00:35:42;;;;;;;8.75;4.70;;;;;;;;;;5054452;28;20036;-62
2023/08/20 00:38:09;;;;;;;6.40;3.88;;;;;;;;;;5064143;28;20048;-61
2023/08/20 00:40:36;;;;;;;8.10;4.13;;;;;;;;;;5053704;28;20118;-62
2023/08/20 00:43:02;;;;;;;9.00;4.20;;;;;;;;;;5070227;28;20110;-69
2023/08/20 00:45:29;;;;;;;6.97;4.20;;;;;;;;;;5056137;28;21743;-61
2023/08/20 00:50:23;;;;;;;8.43;4.30;;;;;;;;;;5050754;27;20432;-61
2023/08/20 00:52:50;;;;;;;8.80;5.18;;;;;;;;;;5036122;28;20160;-59
2023/08/20 00:55:17;;;;;;;8.15;4.22;;;;;;;;;;5037990;28;20037;-62
2023/08/20 00:57:44;;;;;;;7.28;4.55;;;;;;;;;;5035189;28;20045;-61
2023/08/20 01:00:11;;;;;;;6.82;3.70;;;;;;;;;;5050097;28;20033;-61
2023/08/20 01:02:38;;;;;;;6.32;3.85;;;;;;;;;;5032051;28;20045;-64
2023/08/20 01:05:07;;;;;;;5.80;3.53;;;;;;;;;;5035446;28;20037;-62
2023/08/20 01:07:51;;;;;;;8.05;3.90;;;;;;;;;;5035261;28;20053;-63
2023/08/20 01:10:18;;;;;;;6.82;4.10;;;;;;;;;;5043228;28;20052;-63
2023/08/20 01:12:47;;;;;;;7.93;3.88;;;;;;;;;;5034602;28;20044;-62
2023/08/20 01:15:16;;;;;;;7.15;4.07;;;;;;;;;;5034754;28;20088;-63
2023/08/20 01:17:45;;;;;;;6.63;3.95;;;;;;;;;;5035086;28;20039;-61
2023/08/20 01:20:13;;;;;;;6.45;3.72;;;;;;;;;;5035535;28;20041;-61
2023/08/20 01:22:53;;;;;;;7.10;3.60;;;;;;;;;;5034015;28;20810;-59
2023/08/20 01:25:43;;;;;;;7.88;4.40;;;;;;;;;;5050253;28;20037;-59
2023/08/20 01:28:21;;;;;;;6.78;3.75;;;;;;;;;;5036297;28;20041;-60
2023/08/20 01:30:49;;;;;;;11.88;3.75;;;;;;;;;;5037486;28;20041;-62
2023/08/20 01:33:15;;;;;;;6.63;3.65;;;;;;;;;;5058522;28;20052;-63
2023/08/20 01:35:42;;;;;;;8.90;4.13;;;;;;;;;;5039762;28;20041;-67
2023/08/20 01:38:08;;;;;;;8.75;4.10;;;;;;;;;;5054034;28;20043;-62
2023/08/20 01:40:35;;;;;;;6.75;3.70;;;;;;;;;;5058186;28;20105;-63
2023/08/20 01:43:02;;;;;;;8.15;4.07;;;;;;;;;;5062000;28;20067;-65
2023/08/20 01:45:28;;;;;;;8.52;4.32;;;;;;;;;;5048554;28;20372;-63
2023/08/20 01:47:55;;;;;;;9.38;4.10;;;;;;;;;;5050099;28;20037;-63
2023/08/20 01:50:21;;;;;;;6.50;3.78;;;;;;;;;;5032730;28;20452;-66
2023/08/20 01:52:48;;;;;;;7.03;4.10;;;;;;;;;;5033995;28;20045;-62
2023/08/20 01:55:15;;;;;;;8.02;4.55;;;;;;;;;;5034588;28;20038;-63
2023/08/20 01:57:41;;;;;;;7.78;4.28;;;;;;;;;;5036028;28;20096;-63
2023/08/20 02:00:08;;;;;;;6.50;4.03;;;;;;;;;;5029730;28;20057;-63
2023/08/20 02:02:35;;;;;;;8.65;4.40;;;;;;;;;;5021679;28;20044;-62
2023/08/20 02:05:02;;;;;;;7.80;4.55;;;;;;;;;;5020353;28;20052;-66
2023/08/20 02:07:29;;;;;;;7.88;4.30;;;;;;;;;;5017988;28;20034;-61
2023/08/20 02:09:56;;;;;;;9.15;4.45;;;;;;;;;;5018942;28;20050;-59
2023/08/20 02:12:22;;;;;;;9.98;4.85;;;;;;;;;;5019562;28;20040;-62
2023/08/20 02:14:49;;;;;;;9.13;4.82;;;;;;;;;;5017385;28;20410;-58
2023/08/20 02:17:15;;;;;;;9.70;4.95;;;;;;;;;;5014312;28;20037;-62
2023/08/20 02:19:42;;;;;;;9.55;4.90;;;;;;;;;;5014978;28;20057;-63
2023/08/20 02:22:09;;;;;;;11.70;5.03;;;;;;;;;;5018593;28;20044;-63
2023/08/20 02:24:35;;;;;;;8.00;4.75;;;;;;;;;;5017773;28;20037;-61
2023/08/20 02:27:02;;;;;;;8.05;4.50;;;;;;;;;;5019924;28;20043;-64
2023/08/20 02:29:29;;;;;;;8.27;4.68;;;;;;;;;;5018250;28;20145;-63
2023/08/20 02:31:56;;;;;;;8.30;4.90;;;;;;;;;;5019026;28;21746;-63
2023/08/20 02:34:23;;;;;;;8.93;4.80;;;;;;;;;;5018389;28;20120;-64
2023/08/20 02:36:49;;;;;;;9.55;5.32;;;;;;;;;;5017372;28;20042;-63
2023/08/20 02:39:16;;;;;;;7.85;4.57;;;;;;;;;;5018181;28;20040;-62
2023/08/20 02:41:43;;;;;;;8.98;5.03;;;;;;;;;;5018590;28;20034;-61
2023/08/20 02:44:10;;;;;;;15.05;8.35;;;;;;;;;;5021083;28;20060;-61
2023/08/20 02:46:38;;;;;;;15.55;7.85;;;;;;;;;;5039391;28;20055;-63
2023/08/20 02:49:04;;;;;;;13.57;7.35;;;;;;;;;;5016755;28;20061;-61
2023/08/20 02:51:31;;;;;;;10.05;6.10;;;;;;;;;;5018627;28;20041;-64
2023/08/20 02:54:00;;;;;;;11.90;6.65;;;;;;;;;;5020801;28;20115;-63
2023/08/20 02:56:27;;;;;;;12.40;7.80;;;;;;;;;;5019062;28;20054;-63
2023/08/20 02:58:53;;;;;;;16.67;9.63;;;;;;;;;;5019010;28;20041;-62
2023/08/20 03:01:23;;;;;;;16.42;10.82;;;;;;;;;;5018906;28;20438;-63
2023/08/20 03:03:50;;;;;;;22.83;13.32;;;;;;;;;;5018406;28;20132;-61
2023/08/20 03:06:17;;;;;;;23.33;14.00;;;;;;;;;;5019359;28;20034;-64
2023/08/20 03:08:43;;;;;;;29.05;17.58;;;;;;;;;;5016621;28;20073;-62
2023/08/20 03:11:10;;;;;;;30.95;19.17;;;;;;;;;;5017948;28;20037;-62
2023/08/20 03:13:37;;;;;;;38.08;22.80;;;;;;;;;;5015864;28;20037;-62
2023/08/20 03:16:03;;;;;;;40.03;23.95;;;;;;;;;;5017213;28;20040;-63
2023/08/20 03:18:30;;;;;;;42.92;26.30;;;;;;;;;;5029852;28;20060;-62
2023/08/20 03:20:57;;;;;;;46.67;27.52;;;;;;;;;;5017729;28;20099;-63
2023/08/20 03:23:27;;;;;;;44.78;27.73;;;;;;;;;;5016581;28;20045;-62
2023/08/20 03:25:54;;;;;;;45.10;28.70;;;;;;;;;;5018868;28;20037;-64
2023/08/20 03:28:22;;;;;;;48.35;30.63;;;;;;;;;;5017651;28;20053;-62
2023/08/20 03:30:49;;;;;;;54.58;32.45;;;;;;;;;;5018314;28;20393;-61
2023/08/20 03:33:16;;;;;;;57.45;33.90;;;;;;;;;;5019183;28;20117;-60
2023/08/20 03:35:43;;;;;;;62.00;37.05;;;;;;;;;;5017624;28;20135;-62
2023/08/20 03:38:10;;;;;;;65.50;38.58;;;;;;;;;;5018188;28;20037;-63
2023/08/20 03:40:36;;;;;;;70.15;42.00;;;;;;;;;;5035756;28;20461;-63
2023/08/20 03:43:03;;;;;;;80.38;45.78;;;;;;;;;;5017029;28;20136;-62
2023/08/20 03:45:30;;;;;;;79.05;46.50;;;;;;;;;;5016015;28;20060;-62
2023/08/20 03:47:57;;;;;;;84.28;48.28;;;;;;;;;;5016839;28;20240;-65
2023/08/20 03:50:23;;;;;;;90.03;51.05;;;;;;;;;;5031342;28;20115;-62
2023/08/20 03:52:50;;;;;;;89.85;53.88;;;;;;;;;;5016056;28;20034;-66
2023/08/20 03:55:17;;;;;;;95.22;52.75;;;;;;;;;;5017907;28;20179;-64
2023/08/20 03:57:43;;;;;;;95.28;56.60;;;;;;;;;;5017484;28;20084;-64
2023/08/20 04:00:12;;;;;;;99.00;56.42;;;;;;;;;;5017819;28;20622;-62
2023/08/20 04:02:38;;;;;;;98.57;57.45;;;;;;;;;;5017694;28;20048;-63
2023/08/20 04:05:05;;;;;;;107.75;60.38;;;;;;;;;;5017203;28;20041;-61
2023/08/20 04:07:32;;;;;;;106.72;60.63;;;;;;;;;;5017467;28;20112;-63
2023/08/20 04:09:58;;;;;;;105.80;61.50;;;;;;;;;;5031380;28;20173;-65
2023/08/20 04:12:25;;;;;;;105.45;60.35;;;;;;;;;;5033909;28;20044;-61
2023/08/20 04:14:51;;;;;;;106.95;60.63;;;;;;;;;;5016944;28;20041;-64
2023/08/20 04:17:18;;;;;;;107.22;60.67;;;;;;;;;;5016720;28;20048;-61
2023/08/20 04:19:45;;;;;;;106.28;59.65;;;;;;;;;;5016996;28;20041;-61
2023/08/20 04:22:11;;;;;;;112.47;61.35;;;;;;;;;;5031547;28;20037;-60
2023/08/20 04:24:38;;;;;;;105.43;59.38;;;;;;;;;;5016370;28;20100;-60
2023/08/20 04:57:57;;;;;;;91.57;51.42;;;;;;;;;;5057354;28;20439;-65
2023/08/20 05:00:24;;;;;;;84.40;49.70;;;;;;;;;;5059145;28;20124;-63
2023/08/20 05:02:50;;;;;;;81.05;46.03;;;;;;;;;;5048114;28;20047;-62
2023/08/20 05:05:17;;;;;;;86.65;47.35;;;;;;;;;;5060289;28;20036;-64
2023/08/20 05:07:44;;;;;;;79.90;45.53;;;;;;;;;;5073217;28;20048;-64
2023/08/20 05:10:11;;;;;;;80.85;46.45;;;;;;;;;;5073414;28;20029;-61
2023/08/20 05:12:38;;;;;;;80.78;46.13;;;;;;;;;;5052762;28;20163;-62
2023/08/20 05:15:05;;;;;;;78.50;46.10;;;;;;;;;;5054041;28;20449;-64
2023/08/20 05:17:31;;;;;;;79.30;46.47;;;;;;;;;;5057173;27;20052;-62
2023/08/20 05:19:58;;;;;;;84.93;47.08;;;;;;;;;;5044921;28;20041;-62
2023/08/20 05:22:25;;;;;;;75.43;45.50;;;;;;;;;;5059784;28;20415;-62
2023/08/20 05:24:51;;;;;;;81.10;45.42;;;;;;;;;;5041011;28;20120;-62
2023/08/20 05:27:18;;;;;;;83.90;47.28;;;;;;;;;;5059095;27;20063;-62
2023/08/20 05:29:45;;;;;;;83.45;46.00;;;;;;;;;;5057867;28;20082;-62
2023/08/20 05:32:12;;;;;;;80.13;46.38;;;;;;;;;;5058869;28;20055;-63
2023/08/20 05:34:38;;;;;;;80.05;45.70;;;;;;;;;;5058449;28;20072;-61
2023/08/20 05:37:05;;;;;;;79.10;46.05;;;;;;;;;;5055807;27;20044;-61
2023/08/20 05:39:37;;;;;;;88.85;48.78;;;;;;;;;;5053294;28;20488;-63
2023/08/20 05:42:04;;;;;;;90.85;47.33;;;;;;;;;;5059727;28;20062;-62
2023/08/20 05:44:31;;;;;;;83.75;45.80;;;;;;;;;;5058601;28;20052;-65
2023/08/20 05:46:58;;;;;;;83.78;47.60;;;;;;;;;;5058564;27;20043;-63
2023/08/20 05:49:25;;;;;;;83.57;45.25;;;;;;;;;;5058001;28;20075;-61
2023/08/20 05:51:51;;;;;;;82.70;47.53;;;;;;;;;;5058494;28;20047;-62
2023/08/20 05:54:18;;;;;;;85.43;46.35;;;;;;;;;;5059408;28;20041;-64
2023/08/20 05:56:45;;;;;;;80.57;45.47;;;;;;;;;;5059143;27;20052;-63
2023/08/20 05:59:11;;;;;;;94.90;50.47;;;;;;;;;;5041990;28;20036;-61
2023/08/20 06:01:38;;;;;;;86.65;48.63;;;;;;;;;;5058697;28;20520;-62
2023/08/20 06:04:05;;;;;;;94.30;49.53;;;;;;;;;;5058576;28;20047;-62
2023/08/20 06:06:32;;;;;;;89.40;48.70;;;;;;;;;;5059466;28;20056;-61
2023/08/20 06:08:58;;;;;;;91.32;49.38;;;;;;;;;;5024372;28;20040;-63
2023/08/20 06:11:25;;;;;;;89.70;50.17;;;;;;;;;;5057062;28;20041;-62
2023/08/20 06:13:51;;;;;;;94.50;50.90;;;;;;;;;;5046285;28;20041;-60
2023/08/20 06:16:18;;;;;;;97.10;51.35;;;;;;;;;;5046036;28;20052;-60
2023/08/20 06:18:44;;;;;;;95.45;52.67;;;;;;;;;;5044710;28;20048;-61
2023/08/20 06:21:12;;;;;;;86.50;49.17;;;;;;;;;;5047602;28;20131;-62
2023/08/20 06:23:39;;;;;;;91.13;51.20;;;;;;;;;;5044722;28;20033;-61
2023/08/20 06:26:06;;;;;;;86.95;51.75;;;;;;;;;;5048506;28;20052;-61
2023/08/20 06:28:32;;;;;;;91.57;51.60;;;;;;;;;;5046067;28;20056;-61
2023/08/20 06:30:59;;;;;;;94.43;51.15;;;;;;;;;;5046157;28;20041;-62
2023/08/20 06:33:25;;;;;;;96.63;51.00;;;;;;;;;;5046195;28;20037;-62
2023/08/20 06:35:52;;;;;;;91.85;50.80;;;;;;;;;;5044801;28;20045;-63
2023/08/20 06:38:19;;;;;;;98.10;52.65;;;;;;;;;;5043976;28;20131;-62
2023/08/20 06:40:45;;;;;;;94.32;51.53;;;;;;;;;;5044457;28;20041;-61
2023/08/20 06:43:12;;;;;;;88.80;50.38;;;;;;;;;;5044679;28;20669;-62
2023/08/20 06:45:39;;;;;;;104.07;51.90;;;;;;;;;;5025545;28;20425;-63
2023/08/20 06:48:05;;;;;;;95.32;50.97;;;;;;;;;;5043477;28;20032;-61
2023/08/20 06:50:32;;;;;;;93.28;50.25;;;;;;;;;;5042549;28;20086;-61
2023/08/20 06:52:59;;;;;;;95.32;52.33;;;;;;;;;;5042426;28;20029;-63
2023/08/20 06:55:25;;;;;;;98.95;51.72;;;;;;;;;;5042230;28;20045;-62
2023/08/20 06:57:52;;;;;;;96.28;52.55;;;;;;;;;;5045357;28;20679;-61
2023/08/20 07:00:19;;;;;;;93.60;51.95;;;;;;;;;;5045559;28;20044;-63
2023/08/20 07:02:45;;;;;;;101.72;52.33;;;;;;;;;;5044079;28;20045;-61
2023/08/20 07:05:14;;;;;;;100.10;52.63;;;;;;;;;;5060374;28;20052;-63
2023/08/20 07:07:41;;;;;;;90.50;50.80;;;;;;;;;;5044223;28;20489;-63
2023/08/20 07:10:08;;;;;;;95.18;53.30;;;;;;;;;;5027330;28;20045;-64
2023/08/20 07:12:35;;;;;;;94.65;52.13;;;;;;;;;;5013430;28;20029;-62
2023/08/20 07:15:03;;;;;;;95.57;52.03;;;;;;;;;;5043965;28;20048;-64
2023/08/20 07:17:30;;;;;;;94.85;52.63;;;;;;;;;;5043323;28;20506;-63
2023/08/20 07:19:57;;;;;;;95.13;51.80;;;;;;;;;;5024332;28;20508;-62
2023/08/20 07:22:23;;;;;;;103.22;54.15;;;;;;;;;;5042820;28;20079;-63
2023/08/20 07:24:50;;;;;;;102.43;55.33;;;;;;;;;;5044874;28;20047;-62
2023/08/20 07:27:17;;;;;;;97.60;51.53;;;;;;;;;;5044131;28;20055;-61
2023/08/20 07:29:43;;;;;;;97.65;54.30;;;;;;;;;;5043576;28;20068;-61
2023/08/20 07:32:11;;;;;;;99.45;52.40;;;;;;;;;;5044637;28;20036;-63
2023/08/20 07:34:38;;;;;;;106.70;53.58;;;;;;;;;;5044498;28;20405;-61
2023/08/20 07:37:05;;;;;;;97.90;51.95;;;;;;;;;;5044816;28;20056;-63
2023/08/20 07:39:31;;;;;;;101.78;54.97;;;;;;;;;;5042300;28;20033;-61
2023/08/20 07:41:58;;;;;;;99.80;53.17;;;;;;;;;;5044535;28;20097;-63
2023/08/20 07:44:24;;;;;;;98.20;52.33;;;;;;;;;;5041592;28;20051;-64
2023/08/20 07:46:51;;;;;;;98.90;53.83;;;;;;;;;;5044898;28;20033;-61
2023/08/20 07:49:18;;;;;;;100.20;53.55;;;;;;;;;;5025459;28;20044;-61
2023/08/20 07:51:44;;;;;;;96.00;50.72;;;;;;;;;;5042589;28;20045;-61
2023/08/20 07:54:11;;;;;;;102.38;52.40;;;;;;;;;;5043885;28;20094;-62
2023/08/20 07:56:37;;;;;;;94.95;52.05;;;;;;;;;;5043446;28;20080;-63
2023/08/20 07:59:04;;;;;;;95.90;51.22;;;;;;;;;;5025125;28;20045;-63
2023/08/20 08:01:31;;;;;;;95.25;50.85;;;;;;;;;;5039801;28;20063;-62
2023/08/20 08:03:57;;;;;;;104.22;53.05;;;;;;;;;;5027300;28;20520;-62
2023/08/20 08:06:24;;;;;;;100.40;53.03;;;;;;;;;;5040319;28;20572;-62
2023/08/20 08:08:51;;;;;;;92.95;51.10;;;;;;;;;;5042886;28;20052;-61
2023/08/20 08:11:17;;;;;;;91.85;50.65;;;;;;;;;;5045622;28;20044;-62
2023/08/20 08:13:44;;;;;;;98.25;51.83;;;;;;;;;;5042349;28;20045;-61
2023/08/20 08:16:11;;;;;;;99.38;51.53;;;;;;;;;;5044243;28;20103;-62
2023/08/20 08:18:37;;;;;;;99.90;53.47;;;;;;;;;;5044973;28;20044;-62
2023/08/20 08:21:04;;;;;;;98.55;54.55;;;;;;;;;;5044376;28;20588;-62
2023/08/20 08:23:30;;;;;;;101.95;53.85;;;;;;;;;;5044122;28;20063;-64
2023/08/20 08:25:57;;;;;;;93.22;52.80;;;;;;;;;;5044461;28;20037;-62
2023/08/20 08:28:24;;;;;;;109.07;55.45;;;;;;;;;;5043499;28;20045;-64
2023/08/20 08:30:50;;;;;;;100.47;54.92;;;;;;;;;;5043524;28;20047;-61
2023/08/20 08:33:17;;;;;;;100.95;54.38;;;;;;;;;;5043997;28;20037;-62
2023/08/20 08:35:44;;;;;;;105.43;55.58;;;;;;;;;;5043759;28;20057;-61
2023/08/20 08:38:11;;;;;;;106.18;55.05;;;;;;;;;;5042510;28;20553;-61
2023/08/20 08:40:37;;;;;;;100.07;54.92;;;;;;;;;;5023927;28;20143;-62
2023/08/20 08:43:04;;;;;;;104.85;56.55;;;;;;;;;;5041766;28;20489;-61
2023/08/20 08:45:31;;;;;;;102.88;55.30;;;;;;;;;;5043248;28;20923;-62
2023/08/20 08:47:58;;;;;;;105.97;55.58;;;;;;;;;;5043171;28;20060;-61
2023/08/20 08:50:24;;;;;;;99.75;55.05;;;;;;;;;;5043015;28;20110;-61
2023/08/20 08:52:52;;;;;;;103.43;54.65;;;;;;;;;;5044945;28;20532;-61
2023/08/20 08:55:19;;;;;;;99.35;54.85;;;;;;;;;;5059510;28;20105;-61
2023/08/20 08:57:46;;;;;;;101.90;56.05;;;;;;;;;;5040485;28;20478;-63
2023/08/20 09:00:13;;;;;;;100.85;55.92;;;;;;;;;;5041674;28;20064;-62
2023/08/20 09:02:39;;;;;;;101.95;54.10;;;;;;;;;;5040757;28;20052;-61
2023/08/20 09:05:07;;;;;;;106.93;54.45;;;;;;;;;;5042657;28;20041;-61
2023/08/20 09:07:33;;;;;;;99.70;54.40;;;;;;;;;;5041792;28;20040;-61
2023/08/20 09:10:00;;;;;;;99.43;54.53;;;;;;;;;;5043031;28;20485;-60
2023/08/20 09:12:27;;;;;;;104.32;52.90;;;;;;;;;;5043082;28;20127;-61
2023/08/20 09:14:57;;;;;;;104.15;55.22;;;;;;;;;;5044440;28;20456;-61
2023/08/20 09:17:26;;;;;;;104.95;54.05;;;;;;;;;;5041197;28;20045;-64
2023/08/20 09:19:55;;;;;;;99.40;53.05;;;;;;;;;;5056949;28;20110;-60
2023/08/20 09:22:22;;;;;;;101.10;53.80;;;;;;;;;;5042439;28;20036;-62
2023/08/20 09:24:56;;;;;;;98.43;53.55;;;;;;;;;;5034038;28;20037;-60
2023/08/20 09:27:23;;;;;;;95.10;52.75;;;;;;;;;;5043082;28;20041;-66
2023/08/20 09:29:51;;;;;;;103.93;53.08;;;;;;;;;;5041798;28;20111;-61
2023/08/20 09:32:19;;;;;;;103.18;52.63;;;;;;;;;;5025210;28;20500;-63
2023/08/20 09:34:45;;;;;;;89.15;49.10;;;;;;;;;;5025312;28;20066;-61
2023/08/20 09:37:16;;;;;;;100.53;50.42;;;;;;;;;;5042984;28;20485;-61
2023/08/20 09:39:43;;;;;;;94.93;50.80;;;;;;;;;;5039739;28;20395;-61
2023/08/20 09:42:10;;;;;;;93.05;49.20;;;;;;;;;;5042392;28;20604;-61
2023/08/20 09:44:38;;;;;;;92.90;51.13;;;;;;;;;;5045132;28;20099;-61
2023/08/20 09:47:07;;;;;;;88.93;48.63;;;;;;;;;;5046169;28;20072;-61
2023/08/20 09:49:39;;;;;;;92.78;51.22;;;;;;;;;;5025878;28;20144;-62
2023/08/20 09:52:07;;;;;;;99.60;51.20;;;;;;;;;;5047385;28;20037;-61
2023/08/20 09:54:34;;;;;;;97.07;50.72;;;;;;;;;;5045752;28;20094;-62
2023/08/20 09:57:02;;;;;;;89.57;49.67;;;;;;;;;;5046052;28;20075;-60
2023/08/20 09:59:29;;;;;;;92.93;49.65;;;;;;;;;;5043652;28;20071;-61
2023/08/20 10:01:57;;;;;;;91.07;48.65;;;;;;;;;;5044449;28;20557;-59
2023/08/20 10:04:24;;;;;;;91.22;48.35;;;;;;;;;;5012409;28;20177;-61
2023/08/20 10:06:51;;;;;;;91.10;48.60;;;;;;;;;;5047497;28;20070;-60
2023/08/20 10:09:18;;;;;;;92.78;48.75;;;;;;;;;;5026983;28;20497;-64
2023/08/20 10:11:45;;;;;;;83.93;46.83;;;;;;;;;;5042198;28;20040;-62
2023/08/20 10:14:12;;;;;;;87.72;47.15;;;;;;;;;;5047343;28;20107;-61
2023/08/20 10:16:39;;;;;;;88.03;45.80;;;;;;;;;;5044729;28;21175;-61
2023/08/20 10:19:09;;;;;;;91.00;47.72;;;;;;;;;;5044606;28;20075;-62
2023/08/20 10:21:36;;;;;;;87.53;47.33;;;;;;;;;;5044323;28;20055;-61
2023/08/20 10:24:06;;;;;;;93.35;46.90;;;;;;;;;;5044045;28;20057;-63
2023/08/20 10:26:37;;;;;;;82.25;45.55;;;;;;;;;;5014597;28;20095;-62
2023/08/20 10:29:24;;;;;;;82.63;45.38;;;;;;;;;;5047396;28;20522;-62
2023/08/20 10:31:54;;;;;;;85.60;45.00;;;;;;;;;;5034650;28;20481;-61
2023/08/20 10:34:40;;;;;;;86.25;45.83;;;;;;;;;;5043832;28;20506;-60
2023/08/20 10:37:10;;;;;;;84.80;44.95;;;;;;;;;;5043414;28;20666;-63
2023/08/20 10:39:37;;;;;;;84.97;45.75;;;;;;;;;;5044718;28;20087;-61
2023/08/20 10:42:29;;;;;;;82.18;45.38;;;;;;;;;;5045232;28;20029;-62
2023/08/20 10:45:16;;;;;;;82.53;44.17;;;;;;;;;;5043940;28;20110;-62
2023/08/20 10:47:43;;;;;;;81.40;44.50;;;;;;;;;;5045471;28;20047;-64
2023/08/20 10:50:11;;;;;;;90.70;45.85;;;;;;;;;;5045015;28;20041;-60
2023/08/20 10:52:56;;;;;;;83.20;45.67;;;;;;;;;;5043940;28;20427;-63
2023/08/20 10:55:23;;;;;;;84.82;45.53;;;;;;;;;;5044434;28;20109;-61
2023/08/20 10:57:57;;;;;;;77.47;42.80;;;;;;;;;;5043389;28;20575;-60
2023/08/20 11:00:24;;;;;;;81.70;43.95;;;;;;;;;;5044105;28;20037;-61
2023/08/20 11:02:50;;;;;;;84.45;43.80;;;;;;;;;;5034725;28;20116;-60
2023/08/20 11:05:18;;;;;;;81.53;42.25;;;;;;;;;;5043913;28;20073;-62
2023/08/20 11:07:48;;;;;;;74.40;40.30;;;;;;;;;;5043550;28;20036;-61
2023/08/20 11:10:18;;;;;;;72.88;39.17;;;;;;;;;;5043460;28;20367;-63
2023/08/20 11:12:46;;;;;;;70.97;38.70;;;;;;;;;;5041780;28;20037;-61
2023/08/20 11:15:13;;;;;;;67.28;37.80;;;;;;;;;;5042777;28;20043;-62
2023/08/20 11:17:43;;;;;;;72.43;37.17;;;;;;;;;;5044220;28;20057;-60
2023/08/20 11:20:13;;;;;;;65.72;36.35;;;;;;;;;;5044499;28;20501;-61
2023/08/20 11:22:40;;;;;;;69.97;36.45;;;;;;;;;;5041753;28;20037;-61
2023/08/20 11:25:07;;;;;;;61.30;35.25;;;;;;;;;;5044461;28;20049;-61
2023/08/20 11:27:34;;;;;;;64.95;36.83;;;;;;;;;;5043623;28;20631;-62
2023/08/20 11:30:01;;;;;;;66.15;37.05;;;;;;;;;;5048830;28;20045;-61
2023/08/20 11:32:28;;;;;;;63.72;36.45;;;;;;;;;;5023937;28;20037;-64
2023/08/20 11:34:54;;;;;;;68.32;35.85;;;;;;;;;;5058752;28;20041;-63
2023/08/20 11:37:25;;;;;;;66.88;35.17;;;;;;;;;;5023857;28;20041;-61
2023/08/20 11:39:51;;;;;;;68.40;35.65;;;;;;;;;;5042760;28;20043;-63
2023/08/20 11:42:18;;;;;;;61.10;35.70;;;;;;;;;;5012294;28;20294;-63
2023/08/20 11:44:46;;;;;;;62.95;34.88;;;;;;;;;;5043322;28;20619;-63
2023/08/20 11:47:19;;;;;;;64.28;36.50;;;;;;;;;;5044567;28;20040;-62
2023/08/20 11:49:45;;;;;;;64.45;36.42;;;;;;;;;;5044418;28;20052;-60
2023/08/20 11:52:17;;;;;;;65.63;37.00;;;;;;;;;;5060208;28;20025;-62
2023/08/20 11:54:43;;;;;;;66.68;36.35;;;;;;;;;;5044349;28;20048;-62
2023/08/20 11:57:10;;;;;;;64.25;36.30;;;;;;;;;;5040846;28;20079;-59
2023/08/20 11:59:37;;;;;;;62.25;35.42;;;;;;;;;;5053902;28;20485;-60
2023/08/20 12:02:04;;;;;;;62.63;34.92;;;;;;;;;;5043707;28;20041;-60
2023/08/20 12:04:31;;;;;;;62.83;36.47;;;;;;;;;;5044860;28;20166;-63
2023/08/20 12:07:04;;;;;;;62.33;34.10;;;;;;;;;;5012180;28;20041;-62
2023/08/20 12:09:31;;;;;;;61.75;34.17;;;;;;;;;;5023486;28;20048;-62
2023/08/20 12:11:59;;;;;;;63.97;35.63;;;;;;;;;;5043226;28;20158;-62
2023/08/20 12:14:26;;;;;;;61.88;33.03;;;;;;;;;;5056981;28;20485;-61
2023/08/20 12:16:54;;;;;;;63.10;34.08;;;;;;;;;;5042699;28;20909;-60
2023/08/20 12:19:21;;;;;;;62.42;33.80;;;;;;;;;;5010951;28;20065;-62
2023/08/20 12:21:48;;;;;;;57.92;34.20;;;;;;;;;;5040709;28;20040;-60
2023/08/20 12:24:15;;;;;;;60.55;32.47;;;;;;;;;;5057868;28;20037;-60
2023/08/20 12:26:42;;;;;;;55.72;32.30;;;;;;;;;;5041888;28;20036;-60
2023/08/20 12:29:09;;;;;;;53.85;31.85;;;;;;;;;;5045103;28;20037;-60
2023/08/20 12:31:36;;;;;;;54.05;31.77;;;;;;;;;;5042462;28;20110;-60
2023/08/20 12:34:03;;;;;;;54.28;31.58;;;;;;;;;;5042585;28;20037;-63
2023/08/20 12:36:29;;;;;;;57.60;31.83;;;;;;;;;;5042631;28;20136;-61
2023/08/20 12:38:56;;;;;;;56.85;32.72;;;;;;;;;;5042582;28;20140;-64
2023/08/20 12:41:23;;;;;;;54.95;32.17;;;;;;;;;;5057569;28;20044;-63
2023/08/20 12:43:50;;;;;;;56.97;32.15;;;;;;;;;;5043035;28;20588;-61
2023/08/20 12:46:17;;;;;;;54.35;30.85;;;;;;;;;;5044317;28;20053;-62
2023/08/20 12:48:44;;;;;;;56.70;32.50;;;;;;;;;;5040953;28;20076;-63
2023/08/20 12:51:13;;;;;;;57.33;32.42;;;;;;;;;;5042022;28;20050;-63
2023/08/20 12:53:40;;;;;;;54.92;31.30;;;;;;;;;;5042297;28;20336;-63
2023/08/20 12:56:07;;;;;;;52.33;30.35;;;;;;;;;;5042221;28;20486;-61
2023/08/20 12:58:33;;;;;;;52.08;30.15;;;;;;;;;;5041592;28;20043;-62
2023/08/20 13:01:00;;;;;;;54.20;30.85;;;;;;;;;;5039395;28;20204;-60
2023/08/20 13:03:28;;;;;;;55.20;29.60;;;;;;;;;;5042774;28;20044;-62
2023/08/20 13:05:57;;;;;;;52.47;30.73;;;;;;;;;;5043522;28;20036;-63
2023/08/20 13:08:24;;;;;;;45.65;27.95;;;;;;;;;;5024005;28;20041;-62
2023/08/20 13:10:57;;;;;;;50.90;29.40;;;;;;;;;;5043108;28;20092;-60
2023/08/20 13:13:24;;;;;;;56.13;30.30;;;;;;;;;;5024420;28;20037;-62
2023/08/20 13:15:52;;;;;;;56.63;28.42;;;;;;;;;;5041460;28;20045;-62
2023/08/20 13:18:18;;;;;;;48.25;27.90;;;;;;;;;;5044377;28;20060;-59
2023/08/20 13:20:45;;;;;;;48.00;27.90;;;;;;;;;;5043839;28;20048;-60
2023/08/20 13:23:12;;;;;;;48.45;27.60;;;;;;;;;;5045762;28;20494;-63
2023/08/20 13:25:39;;;;;;;47.33;27.33;;;;;;;;;;5061220;28;21700;-62
2023/08/20 13:28:06;;;;;;;48.67;27.55;;;;;;;;;;5047522;28;20537;-60
2023/08/20 13:30:33;;;;;;;48.30;27.15;;;;;;;;;;5014319;28;20493;-63
2023/08/20 13:33:00;;;;;;;50.35;27.27;;;;;;;;;;5045063;28;20041;-63
2023/08/20 13:35:27;;;;;;;49.90;27.55;;;;;;;;;;5061170;28;20036;-64
2023/08/20 13:37:54;;;;;;;45.70;26.05;;;;;;;;;;5014367;28;20417;-59
2023/08/20 13:40:21;;;;;;;46.08;26.52;;;;;;;;;;5046174;28;20033;-64
2023/08/20 13:42:47;;;;;;;48.03;26.23;;;;;;;;;;5046859;28;20041;-61
2023/08/20 13:45:14;;;;;;;49.28;27.40;;;;;;;;;;5048152;28;20482;-59
2023/08/20 13:47:40;;;;;;;45.10;26.38;;;;;;;;;;5047090;28;20274;-63
2023/08/20 13:50:07;;;;;;;48.58;28.15;;;;;;;;;;5047044;28;20442;-60
2023/08/20 13:52:34;;;;;;;48.83;26.42;;;;;;;;;;5045668;28;20057;-58
2023/08/20 13:55:01;;;;;;;45.97;26.83;;;;;;;;;;5047482;28;20353;-62
2023/08/20 13:57:27;;;;;;;44.10;26.63;;;;;;;;;;5043194;28;20052;-58
2023/08/20 13:59:54;;;;;;;51.50;28.77;;;;;;;;;;5056072;28;20485;-61
2023/08/20 14:02:21;;;;;;;53.13;28.90;;;;;;;;;;5009052;28;20057;-62
2023/08/20 14:04:48;;;;;;;55.40;28.60;;;;;;;;;;5039283;28;20106;-59
2023/08/20 14:07:15;;;;;;;49.80;28.77;;;;;;;;;;5047930;28;20033;-58
2023/08/20 14:09:41;;;;;;;52.00;27.55;;;;;;;;;;5046970;28;20079;-60
2023/08/20 14:12:08;;;;;;;48.95;28.27;;;;;;;;;;5047075;28;20141;-63
2023/08/20 14:14:35;;;;;;;44.92;26.80;;;;;;;;;;5045235;28;20028;-57
2023/08/20 14:17:02;;;;;;;50.65;28.25;;;;;;;;;;5060440;28;20099;-63
2023/08/20 14:19:29;;;;;;;45.47;26.80;;;;;;;;;;5045685;28;20063;-63
2023/08/20 14:21:56;;;;;;;52.92;27.73;;;;;;;;;;5045589;28;20041;-61
2023/08/20 14:24:23;;;;;;;46.63;27.05;;;;;;;;;;5046249;28;20040;-63
2023/08/20 14:26:49;;;;;;;47.78;26.42;;;;;;;;;;5014045;28;20037;-59
2023/08/20 14:29:19;;;;;;;41.33;24.02;;;;;;;;;;5040709;28;20483;-59
2023/08/20 14:31:47;;;;;;;43.50;24.70;;;;;;;;;;5043942;28;20473;-59
2023/08/20 14:34:14;;;;;;;41.28;24.52;;;;;;;;;;5046863;28;20041;-57
2023/08/20 14:36:41;;;;;;;41.85;22.27;;;;;;;;;;5045565;28;20067;-59
2023/08/20 14:39:08;;;;;;;43.80;23.25;;;;;;;;;;5044726;28;20056;-59
2023/08/20 14:41:35;;;;;;;44.15;23.23;;;;;;;;;;5043407;28;20066;-65
2023/08/20 14:44:02;;;;;;;36.05;21.73;;;;;;;;;;5044744;28;20432;-63
2023/08/20 14:46:29;;;;;;;36.30;20.80;;;;;;;;;;5043756;28;20057;-61
2023/08/20 14:48:56;;;;;;;33.55;20.02;;;;;;;;;;5043651;28;20147;-65
2023/08/20 14:51:23;;;;;;;35.58;20.17;;;;;;;;;;5043701;28;20036;-60
2023/08/20 14:53:49;;;;;;;36.95;20.67;;;;;;;;;;5043685;28;20037;-61
2023/08/20 14:56:19;;;;;;;34.75;19.50;;;;;;;;;;5045969;28;20102;-61
2023/08/20 14:58:46;;;;;;;34.40;20.33;;;;;;;;;;5043713;28;20085;-62